sensor_id;sensor_type;location;lat;lon;timestamp;P1;durP1;ratioP1;P2;durP2;ratioP2
42602;SDS011;28233;55.748;48.752;2023-05-07T00:01:15;2.13;;;0.50;;
42602;SDS011;28233;55.748;48.752;2023-05-07T00:03:20;1.23;;;0.82;;
42602;SDS011;28233;55.748;48.752;2023-05-07T00:05:23;1.33;;;0.40;;
42602;SDS011;28233;55.748;48.752;2023-05-07T00:07:26;1.33;;;0.45;;
42602;SDS011;28233;55.748;48.752;2023-05-07T00:09:29;1.00;;;0.55;;
42602;SDS011;28233;55.748;48.752;2023-05-07T00:11:32;2.45;;;0.40;;
42602;SDS011;28233;55.748;48.752;2023-05-07T00:13:38;1.00;;;0.50;;
42602;SDS011;28233;55.748;48.752;2023-05-07T00:15:40;1.25;;;0.45;;
42602;SDS011;28233;55.748;48.752;2023-05-07T00:17:43;2.47;;;0.98;;
42602;SDS011;28233;55.748;48.752;2023-05-07T00:19:46;1.52;;;0.55;;
42602;SDS011;28233;55.748;48.752;2023-05-07T00:21:49;4.40;;;0.68;;
42602;SDS011;28233;55.748;48.752;2023-05-07T00:23:52;1.40;;;0.63;;
42602;SDS011;28233;55.748;48.752;2023-05-07T00:25:56;1.73;;;0.63;;
42602;SDS011;28233;55.748;48.752;2023-05-07T00:27:58;2.42;;;0.80;;
42602;SDS011;28233;55.748;48.752;2023-05-07T00:30:06;1.02;;;0.30;;
42602;SDS011;28233;55.748;48.752;2023-05-07T00:32:10;0.75;;;0.50;;
42602;SDS011;28233;55.748;48.752;2023-05-07T00:34:13;2.78;;;0.60;;
42602;SDS011;28233;55.748;48.752;2023-05-07T00:36:16;1.13;;;0.65;;
42602;SDS011;28233;55.748;48.752;2023-05-07T00:38:18;0.57;;;0.30;;
42602;SDS011;28233;55.748;48.752;2023-05-07T00:40:21;1.48;;;0.63;;
42602;SDS011;28233;55.748;48.752;2023-05-07T00:42:24;0.73;;;0.40;;
42602;SDS011;28233;55.748;48.752;2023-05-07T00:44:27;0.98;;;0.50;;
42602;SDS011;28233;55.748;48.752;2023-05-07T00:46:31;1.42;;;0.52;;
42602;SDS011;28233;55.748;48.752;2023-05-07T00:48:35;1.08;;;0.68;;
42602;SDS011;28233;55.748;48.752;2023-05-07T00:50:38;0.95;;;0.57;;
42602;SDS011;28233;55.748;48.752;2023-05-07T00:52:41;1.23;;;0.80;;
42602;SDS011;28233;55.748;48.752;2023-05-07T00:54:44;1.65;;;0.60;;
42602;SDS011;28233;55.748;48.752;2023-05-07T00:56:47;3.83;;;0.55;;
42602;SDS011;28233;55.748;48.752;2023-05-07T00:58:50;1.95;;;0.80;;
42602;SDS011;28233;55.748;48.752;2023-05-07T01:00:53;4.28;;;0.60;;
42602;SDS011;28233;55.748;48.752;2023-05-07T01:02:56;3.65;;;0.80;;
42602;SDS011;28233;55.748;48.752;2023-05-07T01:05:00;1.38;;;0.60;;
42602;SDS011;28233;55.748;48.752;2023-05-07T01:07:05;1.80;;;0.60;;
42602;SDS011;28233;55.748;48.752;2023-05-07T01:09:08;2.45;;;0.63;;
42602;SDS011;28233;55.748;48.752;2023-05-07T01:11:11;1.50;;;0.50;;
42602;SDS011;28233;55.748;48.752;2023-05-07T01:13:14;2.67;;;0.80;;
42602;SDS011;28233;55.748;48.752;2023-05-07T01:15:18;3.75;;;0.60;;
42602;SDS011;28233;55.748;48.752;2023-05-07T01:17:21;2.65;;;0.80;;
42602;SDS011;28233;55.748;48.752;2023-05-07T01:19:23;5.70;;;0.93;;
42602;SDS011;28233;55.748;48.752;2023-05-07T01:21:26;1.48;;;0.85;;
42602;SDS011;28233;55.748;48.752;2023-05-07T01:23:34;2.58;;;0.75;;
42602;SDS011;28233;55.748;48.752;2023-05-07T01:25:38;1.90;;;0.70;;
42602;SDS011;28233;55.748;48.752;2023-05-07T01:27:41;0.90;;;0.63;;
42602;SDS011;28233;55.748;48.752;2023-05-07T01:29:43;1.35;;;1.02;;
42602;SDS011;28233;55.748;48.752;2023-05-07T01:31:46;1.60;;;0.68;;
42602;SDS011;28233;55.748;48.752;2023-05-07T01:33:50;2.35;;;0.82;;
42602;SDS011;28233;55.748;48.752;2023-05-07T01:35:55;2.47;;;0.90;;
42602;SDS011;28233;55.748;48.752;2023-05-07T01:37:58;4.00;;;0.50;;
42602;SDS011;28233;55.748;48.752;2023-05-07T01:40:01;2.33;;;0.68;;
42602;SDS011;28233;55.748;48.752;2023-05-07T01:42:05;3.08;;;0.40;;
42602;SDS011;28233;55.748;48.752;2023-05-07T01:44:09;1.13;;;0.60;;
42602;SDS011;28233;55.748;48.752;2023-05-07T01:46:16;1.17;;;0.43;;
42602;SDS011;28233;55.748;48.752;2023-05-07T01:48:20;1.00;;;0.60;;
42602;SDS011;28233;55.748;48.752;2023-05-07T01:50:23;2.50;;;0.93;;
42602;SDS011;28233;55.748;48.752;2023-05-07T01:52:27;1.65;;;0.85;;
42602;SDS011;28233;55.748;48.752;2023-05-07T01:54:30;1.13;;;0.50;;
42602;SDS011;28233;55.748;48.752;2023-05-07T01:56:33;1.33;;;0.80;;
42602;SDS011;28233;55.748;48.752;2023-05-07T01:58:37;3.00;;;0.90;;
42602;SDS011;28233;55.748;48.752;2023-05-07T02:00:39;1.95;;;0.88;;
42602;SDS011;28233;55.748;48.752;2023-05-07T02:02:43;4.00;;;1.10;;
42602;SDS011;28233;55.748;48.752;2023-05-07T02:04:46;3.13;;;1.30;;
42602;SDS011;28233;55.748;48.752;2023-05-07T02:06:48;4.72;;;1.67;;
42602;SDS011;28233;55.748;48.752;2023-05-07T02:08:51;2.88;;;1.85;;
42602;SDS011;28233;55.748;48.752;2023-05-07T02:10:54;8.95;;;1.85;;
42602;SDS011;28233;55.748;48.752;2023-05-07T02:12:57;6.63;;;2.72;;
42602;SDS011;28233;55.748;48.752;2023-05-07T02:15:00;5.88;;;2.20;;
42602;SDS011;28233;55.748;48.752;2023-05-07T02:17:07;7.03;;;2.35;;
42602;SDS011;28233;55.748;48.752;2023-05-07T02:19:11;8.77;;;2.83;;
42602;SDS011;28233;55.748;48.752;2023-05-07T02:21:14;8.70;;;2.25;;
42602;SDS011;28233;55.748;48.752;2023-05-07T02:23:17;6.55;;;3.10;;
42602;SDS011;28233;55.748;48.752;2023-05-07T02:25:20;13.40;;;3.03;;
42602;SDS011;28233;55.748;48.752;2023-05-07T02:27:22;6.75;;;2.58;;
42602;SDS011;28233;55.748;48.752;2023-05-07T02:29:25;5.80;;;2.08;;
42602;SDS011;28233;55.748;48.752;2023-05-07T02:31:28;9.27;;;2.42;;
42602;SDS011;28233;55.748;48.752;2023-05-07T02:33:30;3.17;;;1.63;;
42602;SDS011;28233;55.748;48.752;2023-05-07T02:35:33;4.75;;;1.67;;
42602;SDS011;28233;55.748;48.752;2023-05-07T02:37:36;3.72;;;1.20;;
42602;SDS011;28233;55.748;48.752;2023-05-07T02:39:39;4.15;;;1.15;;
42602;SDS011;28233;55.748;48.752;2023-05-07T02:41:42;3.92;;;1.42;;
42602;SDS011;28233;55.748;48.752;2023-05-07T02:43:45;2.17;;;1.08;;
42602;SDS011;28233;55.748;48.752;2023-05-07T02:45:47;4.22;;;1.33;;
42602;SDS011;28233;55.748;48.752;2023-05-07T02:47:50;2.95;;;1.27;;
42602;SDS011;28233;55.748;48.752;2023-05-07T02:49:54;8.05;;;2.00;;
42602;SDS011;28233;55.748;48.752;2023-05-07T02:51:57;3.63;;;1.65;;
42602;SDS011;28233;55.748;48.752;2023-05-07T02:53:59;8.30;;;2.00;;
42602;SDS011;28233;55.748;48.752;2023-05-07T02:56:03;5.75;;;1.45;;
42602;SDS011;28233;55.748;48.752;2023-05-07T02:58:06;4.80;;;1.58;;
42602;SDS011;28233;55.748;48.752;2023-05-07T03:00:12;4.43;;;1.60;;
42602;SDS011;28233;55.748;48.752;2023-05-07T03:02:16;4.55;;;1.73;;
42602;SDS011;28233;55.748;48.752;2023-05-07T03:04:19;5.10;;;2.88;;
42602;SDS011;28233;55.748;48.752;2023-05-07T03:06:22;5.18;;;1.65;;
42602;SDS011;28233;55.748;48.752;2023-05-07T03:08:25;7.57;;;1.55;;
42602;SDS011;28233;55.748;48.752;2023-05-07T03:10:28;4.90;;;1.73;;
42602;SDS011;28233;55.748;48.752;2023-05-07T03:12:31;7.20;;;2.47;;
42602;SDS011;28233;55.748;48.752;2023-05-07T03:14:33;4.57;;;1.63;;
42602;SDS011;28233;55.748;48.752;2023-05-07T03:16:37;6.38;;;2.03;;
42602;SDS011;28233;55.748;48.752;2023-05-07T03:18:40;8.93;;;2.75;;
42602;SDS011;28233;55.748;48.752;2023-05-07T03:20:43;7.15;;;2.10;;
42602;SDS011;28233;55.748;48.752;2023-05-07T03:22:46;3.70;;;1.45;;
42602;SDS011;28233;55.748;48.752;2023-05-07T03:24:49;7.45;;;2.80;;
42602;SDS011;28233;55.748;48.752;2023-05-07T03:26:52;7.28;;;2.22;;
42602;SDS011;28233;55.748;48.752;2023-05-07T03:28:54;8.18;;;2.05;;
42602;SDS011;28233;55.748;48.752;2023-05-07T03:30:58;9.05;;;2.33;;
42602;SDS011;28233;55.748;48.752;2023-05-07T03:33:01;6.75;;;3.22;;
42602;SDS011;28233;55.748;48.752;2023-05-07T03:35:03;2.03;;;1.30;;
42602;SDS011;28233;55.748;48.752;2023-05-07T03:37:07;7.32;;;2.00;;
42602;SDS011;28233;55.748;48.752;2023-05-07T03:39:09;2.78;;;1.30;;
42602;SDS011;28233;55.748;48.752;2023-05-07T03:41:12;4.95;;;1.73;;
42602;SDS011;28233;55.748;48.752;2023-05-07T03:43:15;4.97;;;1.52;;
42602;SDS011;28233;55.748;48.752;2023-05-07T03:45:18;4.38;;;1.52;;
42602;SDS011;28233;55.748;48.752;2023-05-07T03:47:21;5.45;;;1.85;;
42602;SDS011;28233;55.748;48.752;2023-05-07T03:49:24;4.93;;;2.13;;
42602;SDS011;28233;55.748;48.752;2023-05-07T03:51:27;5.95;;;1.67;;
42602;SDS011;28233;55.748;48.752;2023-05-07T03:53:29;2.28;;;1.10;;
42602;SDS011;28233;55.748;48.752;2023-05-07T03:55:32;5.55;;;1.77;;
42602;SDS011;28233;55.748;48.752;2023-05-07T03:57:35;4.40;;;1.55;;
42602;SDS011;28233;55.748;48.752;2023-05-07T03:59:37;3.75;;;1.83;;
42602;SDS011;28233;55.748;48.752;2023-05-07T04:01:40;5.00;;;2.03;;
42602;SDS011;28233;55.748;48.752;2023-05-07T04:03:43;4.63;;;1.70;;
42602;SDS011;28233;55.748;48.752;2023-05-07T04:05:46;5.55;;;1.90;;
42602;SDS011;28233;55.748;48.752;2023-05-07T04:07:49;4.28;;;1.48;;
42602;SDS011;28233;55.748;48.752;2023-05-07T04:09:52;2.78;;;1.13;;
42602;SDS011;28233;55.748;48.752;2023-05-07T04:11:54;4.07;;;1.52;;
42602;SDS011;28233;55.748;48.752;2023-05-07T04:13:57;3.83;;;0.85;;
42602;SDS011;28233;55.748;48.752;2023-05-07T04:16:01;3.50;;;1.00;;
42602;SDS011;28233;55.748;48.752;2023-05-07T04:18:05;1.50;;;1.08;;
42602;SDS011;28233;55.748;48.752;2023-05-07T04:20:14;1.73;;;0.88;;
42602;SDS011;28233;55.748;48.752;2023-05-07T04:22:19;2.00;;;0.80;;
42602;SDS011;28233;55.748;48.752;2023-05-07T04:24:21;1.60;;;0.77;;
42602;SDS011;28233;55.748;48.752;2023-05-07T04:26:24;5.32;;;2.55;;
42602;SDS011;28233;55.748;48.752;2023-05-07T04:28:27;2.40;;;0.75;;
42602;SDS011;28233;55.748;48.752;2023-05-07T04:30:29;4.47;;;1.08;;
42602;SDS011;28233;55.748;48.752;2023-05-07T04:32:32;3.22;;;1.10;;
42602;SDS011;28233;55.748;48.752;2023-05-07T04:34:35;1.90;;;0.95;;
42602;SDS011;28233;55.748;48.752;2023-05-07T04:36:38;1.92;;;0.93;;
42602;SDS011;28233;55.748;48.752;2023-05-07T04:38:41;2.75;;;0.80;;
42602;SDS011;28233;55.748;48.752;2023-05-07T04:40:44;5.13;;;0.93;;
42602;SDS011;28233;55.748;48.752;2023-05-07T04:42:48;1.92;;;1.30;;
42602;SDS011;28233;55.748;48.752;2023-05-07T04:44:52;3.17;;;0.95;;
42602;SDS011;28233;55.748;48.752;2023-05-07T04:46:56;2.28;;;0.95;;
42602;SDS011;28233;55.748;48.752;2023-05-07T04:48:59;1.48;;;0.82;;
42602;SDS011;28233;55.748;48.752;2023-05-07T04:51:02;1.63;;;0.95;;
42602;SDS011;28233;55.748;48.752;2023-05-07T04:53:05;2.97;;;0.85;;
42602;SDS011;28233;55.748;48.752;2023-05-07T04:55:08;2.30;;;0.80;;
42602;SDS011;28233;55.748;48.752;2023-05-07T04:57:11;2.85;;;0.47;;
42602;SDS011;28233;55.748;48.752;2023-05-07T04:59:14;3.97;;;0.98;;
42602;SDS011;28233;55.748;48.752;2023-05-07T05:01:16;1.95;;;1.08;;
42602;SDS011;28233;55.748;48.752;2023-05-07T05:03:19;3.25;;;0.98;;
42602;SDS011;28233;55.748;48.752;2023-05-07T05:05:22;1.60;;;0.85;;
42602;SDS011;28233;55.748;48.752;2023-05-07T05:07:25;1.73;;;0.85;;
42602;SDS011;28233;55.748;48.752;2023-05-07T05:09:27;2.50;;;0.73;;
42602;SDS011;28233;55.748;48.752;2023-05-07T05:11:30;1.73;;;0.60;;
42602;SDS011;28233;55.748;48.752;2023-05-07T05:13:33;1.15;;;0.60;;
42602;SDS011;28233;55.748;48.752;2023-05-07T05:15:36;1.70;;;0.40;;
42602;SDS011;28233;55.748;48.752;2023-05-07T05:17:39;1.42;;;0.88;;
42602;SDS011;28233;55.748;48.752;2023-05-07T05:19:42;3.00;;;0.80;;
42602;SDS011;28233;55.748;48.752;2023-05-07T05:21:45;2.25;;;1.05;;
42602;SDS011;28233;55.748;48.752;2023-05-07T05:23:48;1.20;;;0.80;;
42602;SDS011;28233;55.748;48.752;2023-05-07T05:25:55;1.40;;;0.90;;
42602;SDS011;28233;55.748;48.752;2023-05-07T05:27:59;2.80;;;0.93;;
42602;SDS011;28233;55.748;48.752;2023-05-07T05:30:02;2.50;;;0.90;;
42602;SDS011;28233;55.748;48.752;2023-05-07T05:32:06;2.22;;;1.25;;
42602;SDS011;28233;55.748;48.752;2023-05-07T05:34:09;1.65;;;0.90;;
42602;SDS011;28233;55.748;48.752;2023-05-07T05:36:12;1.45;;;0.70;;
42602;SDS011;28233;55.748;48.752;2023-05-07T05:38:15;2.08;;;1.35;;
42602;SDS011;28233;55.748;48.752;2023-05-07T05:40:18;3.55;;;1.25;;
42602;SDS011;28233;55.748;48.752;2023-05-07T05:42:21;1.63;;;1.17;;
42602;SDS011;28233;55.748;48.752;2023-05-07T05:44:24;1.88;;;0.65;;
42602;SDS011;28233;55.748;48.752;2023-05-07T05:46:27;1.33;;;0.80;;
42602;SDS011;28233;55.748;48.752;2023-05-07T05:48:30;1.58;;;0.70;;
42602;SDS011;28233;55.748;48.752;2023-05-07T05:50:33;3.03;;;0.70;;
42602;SDS011;28233;55.748;48.752;2023-05-07T05:52:37;3.05;;;1.52;;
42602;SDS011;28233;55.748;48.752;2023-05-07T05:54:40;1.20;;;0.70;;
42602;SDS011;28233;55.748;48.752;2023-05-07T05:56:43;1.10;;;0.68;;
42602;SDS011;28233;55.748;48.752;2023-05-07T05:58:46;6.28;;;0.73;;
42602;SDS011;28233;55.748;48.752;2023-05-07T06:00:49;2.78;;;0.60;;
42602;SDS011;28233;55.748;48.752;2023-05-07T06:02:54;1.08;;;0.70;;
42602;SDS011;28233;55.748;48.752;2023-05-07T06:04:57;2.08;;;0.50;;
42602;SDS011;28233;55.748;48.752;2023-05-07T06:07:00;2.10;;;0.57;;
42602;SDS011;28233;55.748;48.752;2023-05-07T06:09:02;2.53;;;1.00;;
42602;SDS011;28233;55.748;48.752;2023-05-07T06:11:05;0.80;;;0.52;;
42602;SDS011;28233;55.748;48.752;2023-05-07T06:13:08;3.95;;;1.10;;
42602;SDS011;28233;55.748;48.752;2023-05-07T06:15:11;3.65;;;1.40;;
42602;SDS011;28233;55.748;48.752;2023-05-07T06:17:14;2.38;;;1.17;;
42602;SDS011;28233;55.748;48.752;2023-05-07T06:19:16;3.13;;;1.42;;
42602;SDS011;28233;55.748;48.752;2023-05-07T06:21:25;4.75;;;0.90;;
42602;SDS011;28233;55.748;48.752;2023-05-07T06:23:27;1.17;;;0.60;;
42602;SDS011;28233;55.748;48.752;2023-05-07T06:25:30;4.03;;;1.05;;
42602;SDS011;28233;55.748;48.752;2023-05-07T06:27:33;1.30;;;0.50;;
42602;SDS011;28233;55.748;48.752;2023-05-07T06:29:36;1.02;;;0.52;;
42602;SDS011;28233;55.748;48.752;2023-05-07T06:31:38;1.17;;;0.60;;
42602;SDS011;28233;55.748;48.752;2023-05-07T06:33:43;3.72;;;1.13;;
42602;SDS011;28233;55.748;48.752;2023-05-07T06:35:47;0.93;;;0.70;;
42602;SDS011;28233;55.748;48.752;2023-05-07T06:37:49;1.25;;;0.80;;
42602;SDS011;28233;55.748;48.752;2023-05-07T06:39:52;0.95;;;0.50;;
42602;SDS011;28233;55.748;48.752;2023-05-07T06:41:54;5.22;;;0.82;;
42602;SDS011;28233;55.748;48.752;2023-05-07T06:43:57;1.42;;;0.45;;
42602;SDS011;28233;55.748;48.752;2023-05-07T06:46:00;1.33;;;0.43;;
42602;SDS011;28233;55.748;48.752;2023-05-07T06:48:03;1.77;;;1.10;;
42602;SDS011;28233;55.748;48.752;2023-05-07T06:50:06;4.63;;;1.65;;
42602;SDS011;28233;55.748;48.752;2023-05-07T06:52:10;5.07;;;1.92;;
42602;SDS011;28233;55.748;48.752;2023-05-07T06:54:12;2.78;;;1.52;;
42602;SDS011;28233;55.748;48.752;2023-05-07T06:56:16;3.55;;;1.83;;
42602;SDS011;28233;55.748;48.752;2023-05-07T06:58:18;2.65;;;1.30;;
42602;SDS011;28233;55.748;48.752;2023-05-07T07:00:21;1.60;;;0.65;;
42602;SDS011;28233;55.748;48.752;2023-05-07T07:02:24;1.23;;;0.60;;
42602;SDS011;28233;55.748;48.752;2023-05-07T07:04:27;2.17;;;1.08;;
42602;SDS011;28233;55.748;48.752;2023-05-07T07:06:30;0.88;;;0.47;;
42602;SDS011;28233;55.748;48.752;2023-05-07T07:08:33;3.92;;;0.47;;
42602;SDS011;28233;55.748;48.752;2023-05-07T07:10:37;1.38;;;0.60;;
42602;SDS011;28233;55.748;48.752;2023-05-07T07:12:39;1.95;;;1.17;;
42602;SDS011;28233;55.748;48.752;2023-05-07T07:14:42;2.22;;;0.75;;
42602;SDS011;28233;55.748;48.752;2023-05-07T07:16:45;0.93;;;0.60;;
42602;SDS011;28233;55.748;48.752;2023-05-07T07:18:49;1.00;;;0.52;;
42602;SDS011;28233;55.748;48.752;2023-05-07T07:20:51;2.88;;;0.80;;
42602;SDS011;28233;55.748;48.752;2023-05-07T07:22:54;1.15;;;0.50;;
42602;SDS011;28233;55.748;48.752;2023-05-07T07:24:58;1.23;;;0.60;;
42602;SDS011;28233;55.748;48.752;2023-05-07T07:27:01;1.20;;;0.50;;
42602;SDS011;28233;55.748;48.752;2023-05-07T07:29:04;1.63;;;0.60;;
42602;SDS011;28233;55.748;48.752;2023-05-07T07:31:06;1.95;;;0.57;;
42602;SDS011;28233;55.748;48.752;2023-05-07T07:33:09;1.10;;;0.50;;
42602;SDS011;28233;55.748;48.752;2023-05-07T07:35:12;1.20;;;0.70;;
42602;SDS011;28233;55.748;48.752;2023-05-07T07:37:15;1.02;;;0.65;;
42602;SDS011;28233;55.748;48.752;2023-05-07T07:39:18;1.83;;;0.60;;
42602;SDS011;28233;55.748;48.752;2023-05-07T07:41:21;0.95;;;0.60;;
42602;SDS011;28233;55.748;48.752;2023-05-07T07:43:23;1.50;;;0.50;;
42602;SDS011;28233;55.748;48.752;2023-05-07T07:45:26;2.47;;;0.80;;
42602;SDS011;28233;55.748;48.752;2023-05-07T07:47:29;3.60;;;0.60;;
42602;SDS011;28233;55.748;48.752;2023-05-07T07:49:32;0.80;;;0.50;;
42602;SDS011;28233;55.748;48.752;2023-05-07T07:51:35;2.85;;;0.47;;
42602;SDS011;28233;55.748;48.752;2023-05-07T07:53:37;1.80;;;0.40;;
42602;SDS011;28233;55.748;48.752;2023-05-07T07:55:40;4.47;;;0.77;;
42602;SDS011;28233;55.748;48.752;2023-05-07T07:57:43;1.00;;;0.50;;
42602;SDS011;28233;55.748;48.752;2023-05-07T07:59:46;0.90;;;0.40;;
42602;SDS011;28233;55.748;48.752;2023-05-07T08:01:49;4.45;;;0.57;;
42602;SDS011;28233;55.748;48.752;2023-05-07T08:03:56;1.55;;;0.50;;
42602;SDS011;28233;55.748;48.752;2023-05-07T08:06:01;0.80;;;0.45;;
42602;SDS011;28233;55.748;48.752;2023-05-07T08:08:04;4.38;;;0.60;;
42602;SDS011;28233;55.748;48.752;2023-05-07T08:10:07;1.08;;;0.77;;
42602;SDS011;28233;55.748;48.752;2023-05-07T08:12:10;2.35;;;0.55;;
42602;SDS011;28233;55.748;48.752;2023-05-07T08:14:13;1.00;;;0.60;;
42602;SDS011;28233;55.748;48.752;2023-05-07T08:16:17;0.85;;;0.50;;
42602;SDS011;28233;55.748;48.752;2023-05-07T08:18:21;0.55;;;0.30;;
42602;SDS011;28233;55.748;48.752;2023-05-07T08:20:26;1.27;;;0.60;;
42602;SDS011;28233;55.748;48.752;2023-05-07T08:22:30;1.60;;;0.60;;
42602;SDS011;28233;55.748;48.752;2023-05-07T08:24:33;1.05;;;0.47;;
42602;SDS011;28233;55.748;48.752;2023-05-07T08:26:36;1.73;;;0.68;;
42602;SDS011;28233;55.748;48.752;2023-05-07T08:28:41;0.90;;;0.50;;
42602;SDS011;28233;55.748;48.752;2023-05-07T08:30:44;1.15;;;0.60;;
42602;SDS011;28233;55.748;48.752;2023-05-07T08:32:47;1.63;;;0.77;;
42602;SDS011;28233;55.748;48.752;2023-05-07T08:34:50;9.88;;;0.88;;
42602;SDS011;28233;55.748;48.752;2023-05-07T08:36:53;2.38;;;1.10;;
42602;SDS011;28233;55.748;48.752;2023-05-07T08:38:56;1.92;;;0.47;;
42602;SDS011;28233;55.748;48.752;2023-05-07T08:40:58;2.88;;;0.57;;
42602;SDS011;28233;55.748;48.752;2023-05-07T08:43:01;1.48;;;0.52;;
42602;SDS011;28233;55.748;48.752;2023-05-07T08:45:08;3.10;;;0.52;;
42602;SDS011;28233;55.748;48.752;2023-05-07T08:47:12;2.38;;;0.55;;
42602;SDS011;28233;55.748;48.752;2023-05-07T08:49:15;0.90;;;0.40;;
42602;SDS011;28233;55.748;48.752;2023-05-07T08:51:19;0.75;;;0.57;;
42602;SDS011;28233;55.748;48.752;2023-05-07T08:53:23;1.10;;;0.32;;
42602;SDS011;28233;55.748;48.752;2023-05-07T08:55:26;0.95;;;0.55;;
42602;SDS011;28233;55.748;48.752;2023-05-07T08:57:31;1.20;;;0.50;;
42602;SDS011;28233;55.748;48.752;2023-05-07T08:59:34;4.47;;;0.60;;
42602;SDS011;28233;55.748;48.752;2023-05-07T09:01:36;7.70;;;0.60;;
42602;SDS011;28233;55.748;48.752;2023-05-07T09:03:40;2.78;;;0.80;;
42602;SDS011;28233;55.748;48.752;2023-05-07T09:05:46;3.08;;;0.85;;
42602;SDS011;28233;55.748;48.752;2023-05-07T09:07:49;2.90;;;0.80;;
42602;SDS011;28233;55.748;48.752;2023-05-07T09:09:55;1.23;;;0.52;;
42602;SDS011;28233;55.748;48.752;2023-05-07T09:11:59;1.95;;;0.68;;
42602;SDS011;28233;55.748;48.752;2023-05-07T09:14:02;2.88;;;0.88;;
42602;SDS011;28233;55.748;48.752;2023-05-07T09:16:10;0.85;;;0.45;;
42602;SDS011;28233;55.748;48.752;2023-05-07T09:18:14;3.20;;;0.57;;
42602;SDS011;28233;55.748;48.752;2023-05-07T09:20:18;2.25;;;0.47;;
42602;SDS011;28233;55.748;48.752;2023-05-07T09:22:20;3.75;;;0.65;;
42602;SDS011;28233;55.748;48.752;2023-05-07T09:24:23;1.10;;;0.60;;
42602;SDS011;28233;55.748;48.752;2023-05-07T09:26:26;6.03;;;0.93;;
42602;SDS011;28233;55.748;48.752;2023-05-07T09:28:30;3.05;;;0.60;;
42602;SDS011;28233;55.748;48.752;2023-05-07T09:30:35;1.10;;;0.52;;
42602;SDS011;28233;55.748;48.752;2023-05-07T09:32:38;3.13;;;1.02;;
42602;SDS011;28233;55.748;48.752;2023-05-07T09:34:41;2.90;;;0.55;;
42602;SDS011;28233;55.748;48.752;2023-05-07T09:36:44;1.52;;;0.38;;
42602;SDS011;28233;55.748;48.752;2023-05-07T09:38:47;2.28;;;0.75;;
42602;SDS011;28233;55.748;48.752;2023-05-07T09:41:03;3.55;;;1.65;;
42602;SDS011;28233;55.748;48.752;2023-05-07T09:43:11;1.63;;;0.75;;
42602;SDS011;28233;55.748;48.752;2023-05-07T09:45:16;0.77;;;0.40;;
42602;SDS011;28233;55.748;48.752;2023-05-07T09:47:24;0.82;;;0.60;;
42602;SDS011;28233;55.748;48.752;2023-05-07T09:49:29;3.65;;;0.90;;
42602;SDS011;28233;55.748;48.752;2023-05-07T09:53:47;2.97;;;0.80;;
42602;SDS011;28233;55.748;48.752;2023-05-07T09:55:51;1.90;;;0.70;;
42602;SDS011;28233;55.748;48.752;2023-05-07T09:57:54;1.52;;;0.43;;
42602;SDS011;28233;55.748;48.752;2023-05-07T09:59:57;2.00;;;0.65;;
42602;SDS011;28233;55.748;48.752;2023-05-07T10:02:05;1.27;;;0.40;;
42602;SDS011;28233;55.748;48.752;2023-05-07T10:04:12;1.05;;;0.40;;
42602;SDS011;28233;55.748;48.752;2023-05-07T10:06:16;5.35;;;0.35;;
42602;SDS011;28233;55.748;48.752;2023-05-07T10:08:20;1.70;;;0.57;;
42602;SDS011;28233;55.748;48.752;2023-05-07T10:10:23;2.45;;;0.70;;
42602;SDS011;28233;55.748;48.752;2023-05-07T10:12:26;3.85;;;0.57;;
42602;SDS011;28233;55.748;48.752;2023-05-07T10:14:30;1.10;;;0.60;;
42602;SDS011;28233;55.748;48.752;2023-05-07T10:16:34;1.40;;;0.40;;
42602;SDS011;28233;55.748;48.752;2023-05-07T10:18:38;1.08;;;0.50;;
42602;SDS011;28233;55.748;48.752;2023-05-07T10:20:43;1.05;;;0.70;;
42602;SDS011;28233;55.748;48.752;2023-05-07T10:22:49;1.65;;;0.50;;
42602;SDS011;28233;55.748;48.752;2023-05-07T10:24:54;0.93;;;0.30;;
42602;SDS011;28233;55.748;48.752;2023-05-07T10:27:02;1.08;;;0.45;;
42602;SDS011;28233;55.748;48.752;2023-05-07T10:29:13;0.63;;;0.50;;
42602;SDS011;28233;55.748;48.752;2023-05-07T10:34:12;1.70;;;0.82;;
42602;SDS011;28233;55.748;48.752;2023-05-07T10:36:19;1.05;;;0.57;;
42602;SDS011;28233;55.748;48.752;2023-05-07T10:38:24;1.42;;;0.93;;
42602;SDS011;28233;55.748;48.752;2023-05-07T10:40:29;3.08;;;1.02;;
42602;SDS011;28233;55.748;48.752;2023-05-07T10:42:33;4.20;;;0.85;;
42602;SDS011;28233;55.748;48.752;2023-05-07T10:44:36;1.17;;;0.60;;
42602;SDS011;28233;55.748;48.752;2023-05-07T10:46:39;1.35;;;0.60;;
42602;SDS011;28233;55.748;48.752;2023-05-07T10:51:21;4.90;;;1.00;;
42602;SDS011;28233;55.748;48.752;2023-05-07T10:53:24;2.63;;;1.08;;
42602;SDS011;28233;55.748;48.752;2023-05-07T10:55:29;1.70;;;0.70;;
42602;SDS011;28233;55.748;48.752;2023-05-07T10:57:33;1.40;;;1.00;;
42602;SDS011;28233;55.748;48.752;2023-05-07T10:59:40;1.67;;;0.60;;
42602;SDS011;28233;55.748;48.752;2023-05-07T11:02:03;2.30;;;1.27;;
42602;SDS011;28233;55.748;48.752;2023-05-07T11:04:15;1.77;;;0.95;;
42602;SDS011;28233;55.748;48.752;2023-05-07T11:06:18;3.28;;;1.00;;
42602;SDS011;28233;55.748;48.752;2023-05-07T11:08:20;2.03;;;0.80;;
42602;SDS011;28233;55.748;48.752;2023-05-07T11:10:31;5.38;;;1.05;;
42602;SDS011;28233;55.748;48.752;2023-05-07T11:13:00;1.33;;;0.80;;
42602;SDS011;28233;55.748;48.752;2023-05-07T11:15:04;2.88;;;0.50;;
42602;SDS011;28233;55.748;48.752;2023-05-07T11:17:21;1.45;;;0.50;;
42602;SDS011;28233;55.748;48.752;2023-05-07T11:21:58;0.52;;;0.40;;
42602;SDS011;28233;55.748;48.752;2023-05-07T11:24:01;2.10;;;0.70;;
42602;SDS011;28233;55.748;48.752;2023-05-07T11:26:06;2.33;;;0.77;;
42602;SDS011;28233;55.748;48.752;2023-05-07T11:28:16;1.00;;;0.82;;
42602;SDS011;28233;55.748;48.752;2023-05-07T11:30:19;1.80;;;1.38;;
42602;SDS011;28233;55.748;48.752;2023-05-07T11:32:26;1.63;;;0.65;;
42602;SDS011;28233;55.748;48.752;2023-05-07T11:34:31;2.58;;;0.50;;
42602;SDS011;28233;55.748;48.752;2023-05-07T11:36:35;2.40;;;0.57;;
42602;SDS011;28233;55.748;48.752;2023-05-07T11:38:44;2.78;;;0.77;;
42602;SDS011;28233;55.748;48.752;2023-05-07T11:40:55;4.50;;;0.63;;
42602;SDS011;28233;55.748;48.752;2023-05-07T11:47:24;3.33;;;0.80;;
42602;SDS011;28233;55.748;48.752;2023-05-07T11:49:27;2.38;;;0.68;;
42602;SDS011;28233;55.748;48.752;2023-05-07T11:51:31;4.25;;;0.85;;
42602;SDS011;28233;55.748;48.752;2023-05-07T11:53:35;1.15;;;0.70;;
42602;SDS011;28233;55.748;48.752;2023-05-07T11:55:39;1.17;;;0.50;;
42602;SDS011;28233;55.748;48.752;2023-05-07T11:57:42;3.42;;;0.80;;
42602;SDS011;28233;55.748;48.752;2023-05-07T11:59:45;0.50;;;0.40;;
42602;SDS011;28233;55.748;48.752;2023-05-07T12:01:49;2.75;;;0.68;;
42602;SDS011;28233;55.748;48.752;2023-05-07T12:03:52;0.82;;;0.60;;
42602;SDS011;28233;55.748;48.752;2023-05-07T12:05:55;3.35;;;0.65;;
42602;SDS011;28233;55.748;48.752;2023-05-07T12:07:57;2.92;;;0.63;;
42602;SDS011;28233;55.748;48.752;2023-05-07T12:10:04;1.70;;;0.93;;
42602;SDS011;28233;55.748;48.752;2023-05-07T12:12:09;1.02;;;0.60;;
42602;SDS011;28233;55.748;48.752;2023-05-07T12:14:13;2.88;;;0.70;;
42602;SDS011;28233;55.748;48.752;2023-05-07T12:16:18;2.03;;;0.82;;
42602;SDS011;28233;55.748;48.752;2023-05-07T12:18:22;1.58;;;0.80;;
42602;SDS011;28233;55.748;48.752;2023-05-07T12:20:25;2.47;;;0.68;;
42602;SDS011;28233;55.748;48.752;2023-05-07T12:22:28;1.65;;;0.88;;
42602;SDS011;28233;55.748;48.752;2023-05-07T12:24:46;1.95;;;0.43;;
42602;SDS011;28233;55.748;48.752;2023-05-07T12:26:59;1.02;;;0.43;;
42602;SDS011;28233;55.748;48.752;2023-05-07T12:29:02;0.95;;;0.52;;